createdAt,value
2019-05-06T00:03:08.436Z,97471.68
2019-05-06T00:05:36.435Z,97472.80
2019-05-06T00:08:04.424Z,97473.83
2019-05-06T00:10:34.153Z,97473.34
2019-05-06T00:13:04.399Z,97474.59
2019-05-06T00:15:34.083Z,97468.77
2019-05-06T00:18:01.825Z,97466.39
2019-05-06T00:20:30.091Z,97466.70
2019-05-06T00:28:44.610Z,97469.31
2019-05-06T00:34:04.196Z,97463.48
2019-05-06T00:36:34.307Z,97468.84
2019-05-06T00:44:20.729Z,97472.31
2019-05-06T00:46:48.556Z,97472.16
2019-05-06T00:49:16.560Z,97473.73
2019-05-06T00:51:47.035Z,97470.02
2019-05-06T00:57:05.954Z,97476.81
2019-05-06T00:59:34.568Z,97473.02
2019-05-06T01:02:04.620Z,97474.59
2019-05-06T01:04:34.041Z,97473.87
2019-05-06T01:07:03.999Z,97475.30
2019-05-06T01:09:34.346Z,97474.67
2019-05-06T01:12:03.765Z,97483.27
2019-05-06T01:17:24.820Z,97483.27
2019-05-06T01:19:54.118Z,97480.36
2019-05-06T01:22:24.667Z,97489.75
2019-05-06T01:24:52.402Z,97486.53
2019-05-06T01:27:20.371Z,97487.61
2019-05-06T01:29:48.869Z,97453.66
2019-05-06T01:32:16.938Z,97499.23
2019-05-06T01:35:04.744Z,97500.40
2019-05-06T01:37:34.702Z,97498.75
2019-05-06T01:40:23.889Z,97501.92
2019-05-06T01:43:11.516Z,97507.29
2019-05-06T01:45:40.080Z,97500.31
2019-05-06T01:48:08.420Z,97511.38
2019-05-06T01:50:36.400Z,97509.72
2019-05-06T01:53:04.995Z,97507.61
2019-05-06T01:55:34.387Z,97504.66
2019-05-06T01:58:21.413Z,97504.20
2019-05-06T02:00:49.549Z,97506.88
2019-05-06T02:03:17.604Z,97510.03
2019-05-06T02:05:45.731Z,97514.63
2019-05-06T02:08:33.680Z,97514.36
2019-05-06T02:11:23.994Z,97516.73
2019-05-06T02:13:53.662Z,97517.05
2019-05-06T02:16:23.918Z,97513.02
2019-05-06T02:18:51.269Z,97522.99
2019-05-06T02:21:38.332Z,97512.80
2019-05-06T02:26:55.421Z,97521.16
2019-05-06T02:29:43.428Z,97523.30
2019-05-06T02:35:00.671Z,97526.30
2019-05-06T02:37:47.681Z,97535.12
2019-05-06T02:40:18.458Z,97529.27
2019-05-06T02:42:46.296Z,97526.32
2019-05-06T02:45:14.495Z,97527.12
2019-05-06T02:52:58.360Z,97537.38
2019-05-06T02:58:02.706Z,97538.48
2019-05-06T03:00:29.625Z,97537.68
2019-05-06T03:02:57.720Z,97541.97
2019-05-06T03:05:26.019Z,97541.40
2019-05-06T03:07:57.062Z,97545.42
2019-05-06T03:10:24.735Z,97541.47
2019-05-06T03:12:53.938Z,97543.62
2019-05-06T03:15:23.950Z,97544.16
2019-05-06T03:17:55.343Z,97547.64
2019-05-06T03:25:54.953Z,97554.09
2019-05-06T03:28:23.009Z,97560.81
2019-05-06T03:30:55.855Z,97551.72
2019-05-06T03:33:40.079Z,97552.75
2019-05-06T03:36:05.282Z,97561.07
2019-05-06T03:38:22.885Z,97557.66
2019-05-06T03:40:53.570Z,97463.14
2019-05-06T03:43:23.452Z,97556.06
2019-05-06T03:46:14.284Z,97556.86
2019-05-06T03:48:44.222Z,97561.77
2019-05-06T03:51:13.502Z,97565.22
2019-05-06T03:53:43.301Z,97565.45
2019-05-06T03:56:16.840Z,97568.22
2019-05-06T03:58:43.493Z,97563.65
2019-05-06T04:01:13.175Z,97568.79
2019-05-06T04:03:47.643Z,97570.91
2019-05-06T04:06:13.831Z,97571.70
2019-05-06T04:08:43.667Z,97575.73
2019-05-06T04:11:13.586Z,97573.28
2019-05-06T04:13:43.571Z,97574.51
2019-05-06T04:22:05.307Z,97578.11
2019-05-06T04:27:53.795Z,97586.70
2019-05-06T04:30:24.330Z,97585.67
2019-05-06T04:32:53.142Z,97588.66
2019-05-06T04:35:22.981Z,97592.07
2019-05-06T04:37:53.959Z,97592.37
2019-05-06T04:40:23.801Z,97594.30
2019-05-06T04:42:52.766Z,97602.16
2019-05-06T04:45:23.635Z,97606.19
2019-05-06T04:47:53.624Z,97616.73
2019-05-06T04:50:23.872Z,97611.13
2019-05-06T04:53:04.554Z,97607.41
2019-05-06T04:55:54.387Z,97606.88
2019-05-06T04:58:23.340Z,97611.94
2019-05-06T05:03:22.751Z,97613.63
2019-05-06T05:05:52.706Z,97609.87
2019-05-06T05:08:22.351Z,97615.28
2019-05-06T05:11:04.788Z,97617.96
2019-05-06T05:14:03.276Z,97611.52
2019-05-06T05:16:36.993Z,97618.77
2019-05-06T05:19:07.487Z,97618.53
2019-05-06T05:21:35.464Z,97622.79
2019-05-06T05:24:03.446Z,97625.97
2019-05-06T05:26:32.242Z,97631.08
2019-05-06T05:29:02.808Z,97628.16
2019-05-06T05:31:30.387Z,97636.64
2019-05-06T05:34:02.124Z,97633.45
2019-05-06T05:36:32.591Z,97638.82
2019-05-06T05:38:59.981Z,97638.78
2019-05-06T05:41:28.031Z,97633.34
2019-05-06T05:44:13.000Z,97638.17
2019-05-06T05:46:40.951Z,97636.56
2019-05-06T05:49:27.986Z,97637.29
2019-05-06T05:51:56.054Z,97632.23
2019-05-06T05:54:24.103Z,97635.17
2019-05-06T05:56:52.906Z,97639.93
2019-05-06T05:59:24.046Z,97631.57
2019-05-06T06:01:53.005Z,97638.02
2019-05-06T06:04:22.419Z,97635.10
2019-05-06T06:06:51.987Z,97642.42
2019-05-06T06:09:22.383Z,97637.78
2019-05-06T06:11:53.212Z,97642.35
2019-05-06T06:14:49.431Z,97645.42
2019-05-06T06:17:34.941Z,97645.34
2019-05-06T06:20:22.022Z,97648.91
2019-05-06T06:22:52.170Z,97649.98
2019-05-06T06:25:23.337Z,97648.10
2019-05-06T06:27:51.875Z,97648.59
2019-05-06T06:30:22.231Z,97651.83
2019-05-06T06:32:50.284Z,97655.05
2019-05-06T06:35:32.471Z,97655.77
2019-05-06T06:38:23.872Z,97658.61
2019-05-06T06:40:55.497Z,97654.58
2019-05-06T06:43:24.469Z,97657.80
2019-05-06T06:45:53.107Z,97652.67
2019-05-06T06:48:22.880Z,97662.25
2019-05-06T06:50:52.209Z,97652.78
2019-05-06T06:53:21.864Z,97653.82
2019-05-06T06:55:49.846Z,97653.75
2019-05-06T06:58:34.967Z,97654.08
2019-05-06T07:01:27.974Z,97658.34
2019-05-06T07:04:05.700Z,97650.78
2019-05-06T07:06:53.001Z,97665.48
2019-05-06T07:09:23.042Z,97657.61
2019-05-06T07:11:52.492Z,97649.86
2019-05-06T07:14:20.014Z,97651.51
2019-05-06T07:16:47.868Z,97654.53
2019-05-06T07:19:19.186Z,97652.73
2019-05-06T07:21:52.278Z,97643.75
2019-05-06T07:24:22.676Z,97645.86
2019-05-06T07:26:54.186Z,97649.89
2019-05-06T07:29:26.354Z,97641.60
2019-05-06T07:31:53.460Z,97635.92
2019-05-06T07:34:22.936Z,97632.13
2019-05-06T07:36:52.492Z,97634.73
2019-05-06T07:39:24.149Z,97631.51
2019-05-06T07:41:58.164Z,97636.13
2019-05-06T07:44:52.845Z,97639.23
2019-05-06T07:47:57.415Z,97631.02
2019-05-06T07:50:25.500Z,97633.34
2019-05-06T07:53:09.561Z,97636.75
2019-05-06T07:55:37.927Z,97633.03
2019-05-06T07:58:05.918Z,97635.79
2019-05-06T08:00:33.801Z,97638.33
2019-05-06T08:03:02.520Z,97641.16
2019-05-06T08:05:32.487Z,97634.61
2019-05-06T08:08:02.777Z,97640.39
2019-05-06T08:10:30.023Z,97638.97
2019-05-06T08:12:57.820Z,97634.39
2019-05-06T08:15:26.028Z,97629.64
2019-05-06T08:17:53.870Z,97636.28
2019-05-06T08:20:22.267Z,97630.76
2019-05-06T08:23:06.244Z,97634.09
2019-05-06T08:25:39.344Z,97633.98
2019-05-06T08:28:07.324Z,97630.28
2019-05-06T08:30:35.305Z,97630.36
2019-05-06T08:33:03.151Z,97626.34
2019-05-06T08:35:33.054Z,97625.71
2019-05-06T08:38:02.399Z,97621.98
2019-05-06T08:40:32.117Z,97633.38
2019-05-06T08:43:02.188Z,97620.80
2019-05-06T08:45:29.862Z,97618.68
2019-05-06T08:47:57.903Z,97623.44
2019-05-06T08:50:32.522Z,97616.35
2019-05-06T08:53:32.890Z,97614.38
2019-05-06T08:56:02.013Z,97614.56
2019-05-06T08:58:48.673Z,97610.45
2019-05-06T09:01:28.743Z,97615.81
2019-05-06T09:04:08.360Z,97613.83
2019-05-06T09:06:30.279Z,97619.52
2019-05-06T09:08:56.970Z,97620.98
2019-05-06T09:11:25.891Z,97618.25
2019-05-06T09:13:53.724Z,97615.80
2019-05-06T09:16:22.322Z,97626.16
2019-05-06T09:18:53.118Z,97622.74
2019-05-06T09:21:22.422Z,97621.71
2019-05-06T09:23:50.003Z,97618.92
2019-05-06T09:26:22.437Z,97612.93
2019-05-06T09:28:56.057Z,97616.50
2019-05-06T09:31:38.056Z,97614.75
2019-05-06T09:34:17.046Z,97617.66
2019-05-06T09:36:51.720Z,97617.04
2019-05-06T09:39:14.490Z,97619.19
2019-05-06T09:41:46.761Z,97626.22
2019-05-06T09:44:12.494Z,97614.66
2019-05-06T09:46:42.688Z,97615.39
2019-05-06T09:49:22.742Z,97622.10
2019-05-06T09:51:50.178Z,97622.59
2019-05-06T09:54:32.150Z,97619.59
2019-05-06T09:57:06.480Z,97626.00
2019-05-06T09:59:34.373Z,97618.72
2019-05-06T10:02:02.279Z,97616.03
2019-05-06T10:04:32.377Z,97619.65
2019-05-06T10:07:00.093Z,97624.71
2019-05-06T10:09:27.992Z,97621.80
2019-05-06T10:11:55.828Z,97625.02
2019-05-06T10:14:23.758Z,97625.52
2019-05-06T10:16:52.418Z,97630.70
2019-05-06T10:19:22.680Z,97632.93
2019-05-06T10:21:50.299Z,97633.16
2019-05-06T10:24:18.168Z,97632.46
2019-05-06T10:26:52.341Z,97630.89
2019-05-06T10:29:43.252Z,97631.90
2019-05-06T10:32:48.646Z,97637.11
2019-05-06T10:35:16.731Z,97636.03
2019-05-06T10:38:06.688Z,97631.20
2019-05-06T10:40:44.018Z,97628.69
2019-05-06T10:43:10.030Z,97633.50
2019-05-06T10:45:38.036Z,97631.37
2019-05-06T10:48:05.974Z,97630.50
2019-05-06T10:50:38.031Z,97630.76
2019-05-06T10:53:23.399Z,97626.95
2019-05-06T10:55:53.749Z,97628.86
2019-05-06T10:58:22.704Z,97628.23
2019-05-06T11:00:54.177Z,97632.84
2019-05-06T11:03:23.021Z,97628.91
2019-05-06T11:05:53.142Z,97631.41
2019-05-06T11:08:22.123Z,97624.38
2019-05-06T11:10:50.332Z,97623.97
2019-05-06T11:13:18.373Z,97621.11
2019-05-06T11:15:46.666Z,97621.98
2019-05-06T11:18:14.493Z,97628.40
2019-05-06T11:20:43.731Z,97623.47
2019-05-06T11:23:14.220Z,97621.50
2019-05-06T11:25:43.158Z,97619.66
2019-05-06T11:28:29.400Z,97621.09
2019-05-06T11:31:13.887Z,97617.06
2019-05-06T11:33:56.629Z,97615.58
2019-05-06T11:36:32.837Z,97615.58
2019-05-06T11:39:00.717Z,97618.27
2019-05-06T11:41:28.944Z,97619.75
2019-05-06T11:43:57.045Z,97615.64
2019-05-06T11:46:24.973Z,97620.47
2019-05-06T11:48:52.877Z,97627.50
2019-05-06T11:51:23.101Z,97620.63
2019-05-06T11:53:53.847Z,97615.08
2019-05-06T11:56:22.917Z,97620.06
2019-05-06T11:58:53.166Z,97626.00
2019-05-06T12:01:25.176Z,97624.40
2019-05-06T12:03:53.157Z,97621.71
2019-05-06T12:06:22.704Z,97625.83
2019-05-06T12:08:52.411Z,97625.64
2019-05-06T12:11:23.393Z,97624.48
2019-05-06T12:13:50.239Z,97628.52
2019-05-06T12:16:18.193Z,97632.36
2019-05-06T12:18:46.188Z,97634.81
2019-05-06T12:21:19.045Z,97635.67
2019-05-06T12:23:44.998Z,97638.62
2019-05-06T12:26:13.373Z,97648.88
2019-05-06T12:28:43.534Z,97646.80
2019-05-06T12:31:12.638Z,97650.52
2019-05-06T12:33:44.729Z,97649.18
2019-05-06T12:36:20.255Z,97653.70
2019-05-06T12:39:06.834Z,97653.39
2019-05-06T12:41:37.292Z,97655.28
2019-05-06T12:44:05.462Z,97657.73
2019-05-06T12:46:43.194Z,97656.31
2019-05-06T12:49:13.155Z,97660.27
2019-05-06T12:51:43.236Z,97657.84
2019-05-06T12:54:12.884Z,97656.73
2019-05-06T12:56:42.427Z,97657.27
2019-05-06T12:59:12.584Z,97657.68
2019-05-06T13:01:39.993Z,97656.02
2019-05-06T13:04:07.847Z,97666.55
2019-05-06T13:06:35.976Z,97659.59
2019-05-06T13:09:05.329Z,97656.19
2019-05-06T13:11:33.416Z,97657.22
2019-05-06T13:14:04.040Z,97655.69
2019-05-06T13:16:33.318Z,97654.58
2019-05-06T13:19:03.096Z,97655.61
2019-05-06T13:21:32.568Z,97659.02
2019-05-06T13:24:04.773Z,97656.73
2019-05-06T13:26:34.825Z,97655.80
2019-05-06T13:29:08.112Z,97658.56
2019-05-06T13:31:36.152Z,97654.77
2019-05-06T13:34:23.411Z,97659.10
2019-05-06T13:36:53.324Z,97657.14
2019-05-06T13:39:23.707Z,97655.17
2019-05-06T13:41:52.844Z,97654.86
2019-05-06T13:44:22.745Z,97653.52
2019-05-06T13:46:53.268Z,97653.83
2019-05-06T13:49:42.608Z,97653.83
2019-05-06T13:52:12.639Z,97659.20
2019-05-06T13:54:42.172Z,97655.33
2019-05-06T13:57:12.543Z,97651.55
2019-05-06T13:59:40.494Z,97647.63
2019-05-06T14:02:36.222Z,97645.39
2019-05-06T14:05:05.054Z,97651.13
2019-05-06T14:07:34.387Z,97645.80
2019-05-06T14:10:02.847Z,97643.38
2019-05-06T14:12:33.146Z,97638.41
2019-05-06T14:15:04.141Z,97639.80
2019-05-06T14:17:32.633Z,97632.72
2019-05-06T14:20:02.433Z,97640.70
2019-05-06T14:22:29.817Z,97634.47
2019-05-06T14:25:16.054Z,97641.14
2019-05-06T14:27:44.766Z,97634.73
2019-05-06T14:30:17.657Z,97635.31
2019-05-06T14:32:45.992Z,97640.69
2019-05-06T14:35:13.911Z,97636.70
2019-05-06T14:37:42.289Z,97637.69
2019-05-06T14:40:11.951Z,97641.72
2019-05-06T14:42:42.142Z,97640.82
2019-05-06T14:45:09.637Z,97638.23
2019-05-06T14:47:39.261Z,97647.00
2019-05-06T14:50:07.572Z,97639.56
2019-05-06T14:52:35.624Z,97641.62
2019-05-06T14:55:15.323Z,97636.79
2019-05-06T14:57:43.617Z,97638.53
2019-05-06T15:00:14.031Z,97641.27
2019-05-06T15:02:42.817Z,97642.15
2019-05-06T15:05:13.037Z,97645.15
2019-05-06T15:07:42.077Z,97647.73
2019-05-06T15:10:21.958Z,97653.11
2019-05-06T15:12:42.474Z,97660.45
2019-05-06T15:15:11.641Z,97658.80
2019-05-06T15:17:39.300Z,97666.94
2019-05-06T15:20:07.470Z,97662.00
2019-05-06T15:22:35.367Z,97667.67
2019-05-06T15:25:03.622Z,97673.55
2019-05-06T15:27:33.466Z,97671.09
2019-05-06T15:30:03.458Z,97670.23
2019-05-06T15:32:36.506Z,97672.74
2019-05-06T15:35:23.269Z,97669.75
2019-05-06T15:38:02.103Z,97667.47
2019-05-06T15:40:34.196Z,97671.02
2019-05-06T15:42:59.333Z,97666.67
2019-05-06T15:45:27.347Z,97669.55
2019-05-06T15:47:55.271Z,97667.58
2019-05-06T15:50:23.348Z,97668.69
2019-05-06T15:52:53.624Z,97669.95
2019-05-06T15:55:22.585Z,97667.58
2019-05-06T15:57:52.662Z,97666.63
2019-05-06T16:00:22.552Z,97667.39
2019-05-06T16:02:52.774Z,97670.97
2019-05-06T16:05:22.335Z,97673.41
2019-05-06T16:07:49.509Z,97669.85
2019-05-06T16:10:17.285Z,97676.23
2019-05-06T16:12:46.173Z,97668.41
2019-05-06T16:15:14.090Z,97669.25
2019-05-06T16:17:42.744Z,97673.23
2019-05-06T16:20:12.962Z,97678.53
2019-05-06T16:22:44.144Z,97674.99
2019-05-06T16:25:13.325Z,97671.50
2019-05-06T16:27:43.849Z,97675.45
2019-05-06T16:30:13.131Z,97676.08
2019-05-06T16:32:41.987Z,97675.23
2019-05-06T16:35:11.936Z,97678.77
2019-05-06T16:37:42.049Z,97673.39
2019-05-06T16:40:12.084Z,97673.67
2019-05-06T16:42:39.148Z,97677.14
2019-05-06T16:45:07.254Z,97672.54
2019-05-06T16:47:38.889Z,97675.30
2019-05-06T16:50:07.789Z,97675.30
2019-05-06T16:52:35.792Z,97676.34
2019-05-06T16:55:03.989Z,97671.20
2019-05-06T16:57:33.357Z,97669.23
2019-05-06T17:00:39.505Z,97676.19
2019-05-06T17:06:25.575Z,97676.98
2019-05-06T17:11:42.511Z,97683.05
2019-05-06T17:14:12.244Z,97674.81
2019-05-06T17:16:42.171Z,97684.52
2019-05-06T17:19:09.491Z,97684.30
2019-05-06T17:21:37.764Z,97684.45
2019-05-06T17:24:05.504Z,97684.76
2019-05-06T17:26:33.925Z,97688.67
2019-05-06T17:29:22.686Z,97683.80
2019-05-06T17:32:28.919Z,97685.95
2019-05-06T17:34:57.734Z,97684.19
2019-05-06T17:37:45.462Z,97694.05
2019-05-06T17:43:03.119Z,97689.48
2019-05-06T17:46:01.088Z,97691.75
2019-05-06T17:48:38.672Z,97695.78
2019-05-06T17:51:25.568Z,97699.81
2019-05-06T17:56:28.590Z,97701.38
2019-05-06T17:59:15.660Z,97698.77
2019-05-06T18:04:53.413Z,97701.64
2019-05-06T18:07:23.018Z,97705.98
2019-05-06T18:09:52.240Z,97708.25
2019-05-06T18:12:22.572Z,97713.86
2019-05-06T18:15:09.390Z,97714.66
2019-05-06T18:17:37.639Z,97714.66
2019-05-06T18:20:24.697Z,97717.70
2019-05-06T18:22:52.673Z,97721.42
2019-05-06T18:25:22.911Z,97721.27
2019-05-06T18:27:52.533Z,97726.87
2019-05-06T18:30:26.867Z,97727.72
2019-05-06T18:35:23.722Z,97730.89
2019-05-06T18:37:52.160Z,97730.83
2019-05-06T18:40:23.053Z,97733.05
2019-05-06T18:42:52.509Z,97735.97
2019-05-06T18:45:22.069Z,97736.46
2019-05-06T18:47:53.038Z,97748.36
2019-05-06T18:50:22.025Z,97743.52
2019-05-06T18:52:52.837Z,97748.97
2019-05-06T18:55:22.376Z,97754.58
2019-05-06T18:57:52.654Z,97756.41
2019-05-06T19:00:22.269Z,97762.33
2019-05-06T19:02:52.037Z,97760.98
2019-05-06T19:05:39.863Z,97770.34
2019-05-06T19:08:26.758Z,97779.25
2019-05-06T19:10:55.093Z,97777.41
2019-05-06T19:13:23.065Z,97777.98
2019-05-06T19:15:52.628Z,97784.13
2019-05-06T19:18:22.460Z,97784.39
2019-05-06T19:20:50.560Z,97786.81
2019-05-06T19:23:18.582Z,97785.73
2019-05-06T19:25:46.533Z,97792.38
2019-05-06T19:28:14.570Z,97798.43
2019-05-06T19:30:42.611Z,97794.64
2019-05-06T19:33:29.731Z,97790.91
2019-05-06T19:35:57.701Z,97793.53
2019-05-06T19:41:13.338Z,97791.78
2019-05-06T19:43:41.800Z,97790.91
2019-05-06T19:46:28.767Z,97790.44
2019-05-06T19:48:56.768Z,97789.27
2019-05-06T19:51:43.814Z,97786.81
2019-05-06T19:54:12.670Z,97789.34
2019-05-06T19:56:42.302Z,97792.56
2019-05-06T19:59:12.934Z,97790.98
2019-05-06T20:01:42.934Z,97793.67
2019-05-06T20:07:04.233Z,97789.94
2019-05-06T20:09:59.353Z,97789.56
2019-05-06T20:12:58.268Z,97795.02
2019-05-06T20:15:34.918Z,97795.08
2019-05-06T20:18:03.229Z,97795.55
2019-05-06T20:20:34.353Z,97794.58
2019-05-06T20:23:02.708Z,97791.89
2019-05-06T20:25:30.974Z,97797.57
2019-05-06T20:27:58.961Z,97792.63
2019-05-06T20:30:45.899Z,97792.13
2019-05-06T20:33:13.873Z,97800.19
2019-05-06T20:35:43.277Z,97793.47
2019-05-06T20:38:12.278Z,97799.65
2019-05-06T20:40:43.117Z,97797.20
2019-05-06T20:43:19.441Z,97796.00
2019-05-06T20:45:42.749Z,97791.59
2019-05-06T20:48:12.721Z,97795.69
2019-05-06T20:50:42.729Z,97796.42
2019-05-06T20:53:12.110Z,97793.73
2019-05-06T20:55:40.097Z,97787.06
2019-05-06T20:58:08.121Z,97791.09
2019-05-06T21:00:55.308Z,97791.09
2019-05-06T21:03:23.577Z,97789.81
2019-05-06T21:06:12.893Z,97787.63
2019-05-06T21:08:42.189Z,97794.08
2019-05-06T21:11:29.475Z,97785.48
2019-05-06T21:13:57.526Z,97790.05
2019-05-06T21:16:25.512Z,97783.34
2019-05-06T21:18:53.644Z,97787.13
2019-05-06T21:21:21.630Z,97791.09
2019-05-06T21:23:49.781Z,97785.25
2019-05-06T21:26:17.827Z,97787.67
2019-05-06T21:28:46.415Z,97782.30
2019-05-06T21:31:15.642Z,97782.56
2019-05-06T21:34:02.897Z,97784.38
2019-05-06T21:36:30.979Z,97783.64
2019-05-06T21:38:58.853Z,97783.95
2019-05-06T21:41:47.428Z,97779.92
2019-05-06T21:44:15.476Z,97776.77
2019-05-06T21:46:43.469Z,97775.12
2019-05-06T21:49:12.137Z,97777.80
2019-05-06T21:51:42.591Z,97771.12
2019-05-06T21:54:12.579Z,97771.12
2019-05-06T21:56:42.441Z,97774.96
2019-05-06T21:59:22.262Z,97777.38
2019-05-06T22:04:18.179Z,97770.09
2019-05-06T22:06:46.046Z,97765.61
2019-05-06T22:11:49.008Z,97769.31
2019-05-06T22:14:36.160Z,97766.56
2019-05-06T22:19:53.031Z,97758.59
2019-05-06T22:22:23.438Z,97758.81
2019-05-06T22:24:55.704Z,97758.05
2019-05-06T22:27:21.960Z,97747.84
2019-05-06T22:29:52.253Z,97741.13
2019-05-06T22:35:11.918Z,97742.55
2019-05-06T22:37:42.234Z,97734.72
2019-05-06T22:40:09.898Z,97749.02
2019-05-06T22:42:37.977Z,97740.90
2019-05-06T22:45:06.115Z,97739.36
2019-05-06T22:47:34.390Z,97744.19
2019-05-06T22:50:22.541Z,97746.14
2019-05-06T22:52:52.851Z,97748.03
2019-05-06T22:58:28.432Z,97756.88
2019-05-06T23:00:57.062Z,97752.92
2019-05-06T23:03:25.554Z,97756.41
2019-05-06T23:05:53.540Z,97761.52
2019-05-06T23:08:21.420Z,97753.23
2019-05-06T23:10:49.679Z,97757.49
2019-05-06T23:13:17.581Z,97754.27
2019-05-06T23:15:45.564Z,97757.26
2019-05-06T23:18:13.612Z,97760.98
2019-05-06T23:20:43.020Z,97754.50
2019-05-06T23:23:12.787Z,97758.60
2019-05-06T23:25:43.417Z,97752.73
2019-05-06T23:28:11.949Z,97755.72
2019-05-06T23:30:39.844Z,97758.67
2019-05-06T23:33:07.800Z,97754.95
2019-05-06T23:35:35.724Z,97761.96
2019-05-06T23:38:23.003Z,97757.97
2019-05-06T23:41:08.542Z,97758.23
2019-05-06T23:43:54.559Z,97753.91
2019-05-06T23:46:40.509Z,97755.55
2019-05-06T23:49:26.166Z,97753.34
2019-05-06T23:52:12.044Z,97750.11
2019-05-06T23:54:57.659Z,97748.54
2019-05-06T23:57:24.966Z,97749.88
2019-05-06T23:59:54.643Z,97750.95
